Terminal Aerodrome Forecast
Issued by NWS

Current Version | Previous Version | Graphics & Text | Print | Product List | Glossary On
Versions: 1 2 3 4 5 6 7 8 9 10 11 12 13 14 15 16 17 18 19 20 21
089
FTUS41 KILN 172339
TAFLUK
TAF
KLUK 172339Z 1800/1824 20010KT P6SM VCSH SCT040 BKN100
     FM180100 22010KT P6SM SCT040 BKN090
     FM180700 24004KT 5SM BR FEW100
     FM181400 27010KT P6SM SCT035
     FM182100 28008KT P6SM SKC=

USA.gov is the U.S. government's official web portal to all federal, state and local government web resources and services.